עמוד ראשי
METAR-TAF:

METAR-TAF

שדות תעופה :

Lifuka, טונגה

קו רוחב: 19-46-36S, קו אורך: 174-20-28W, גובה: 9מטר

תצפית מזג אוויר נוכחית

הדו"ח נערך לפני 4 שעות ו 23דקות, בשעה 06:00 UTC
רוח 10קשר מכיוון מזרח
טמפרטורת 26 צלסיוס
לחות 89%
לחץ 1014 hPa
ראות 10 קילומטר או יותר
מעט עננים בגובה 1600רגל
עננים בינוניים בגובה 11000רגל

METAR: NFTL 150600Z 09010KT 9999 FEW016 BKN110 26/24 Q1014

זמן: 23:23 (10:23 UTC)


TAF: חסר

תצפיות ותחזיות מזג אוויר לגבי יותר מ- 4,000 שדות תעופה ברחבי העולם. דוחות METAR ו- TAF.

התחנות הזמינות מסומנות בנקודות צהובות ואדומות על גבי המפה.

העבר את העכבר לנקודה הצבעונית על מנת לראות את שם התחנה.

לאחר מכן, לחץ כדי לראות את תוכן ואת תחזיות מזג האוויר.

כדי לשנות את המפה: לחץ על הכפתורים הירוקים עם הפלוס השחור כדי להתקרב; על הכפתור הירוק עם המקף כדי להתרחק; או בחיצים הירוקים למפות סמוכות.


METAR-TAF: